Time;durP1;ratioP1;P1;durP2;ratioP2;P2;SDS_P1;SDS_P2;PMS_P1;PMS_P2;Temp;Humidity;BMP_temperature;BMP_pressure;BME280_temperature;BME280_humidity;BME280_pressure;Samples;Min_cycle;Max_cycle;Signal;HPM_P1;HPM_P2
2021/01/02 00:01:04;;;;;;;13.50;6.20;;;3.00;84.00;;;;;;4916220;29;20044;-91
2021/01/02 00:03:46;;;;;;;14.05;6.45;;;3.00;83.90;;;;;;4916032;29;20016;-91
2021/01/02 00:06:27;;;;;;;15.10;6.57;;;2.90;83.80;;;;;;4911570;29;20055;-92
2021/01/02 00:09:04;;;;;;;13.00;5.45;;;2.90;83.90;;;;;;4930199;29;20032;-91
2021/01/02 00:12:10;;;;;;;16.40;7.22;;;2.90;84.00;;;;;;4915184;29;20028;-89
2021/01/02 00:14:58;;;;;;;19.83;7.30;;;2.80;84.20;;;;;;4919900;29;20047;-94
2021/01/02 00:17:55;;;;;;;15.35;7.13;;;2.90;84.30;;;;;;4918354;29;20512;-93
2021/01/02 00:21:00;;;;;;;14.82;7.10;;;2.80;84.10;;;;;;4943016;29;20028;-92
2021/01/02 00:24:03;;;;;;;14.98;6.43;;;2.80;84.00;;;;;;4933614;29;20063;-91
2021/01/02 00:26:46;;;;;;;17.88;8.15;;;2.70;84.00;;;;;;4935104;29;20032;-91
2021/01/02 00:29:22;;;;;;;14.40;6.57;;;2.60;83.70;;;;;;4916851;29;20044;-90
2021/01/02 00:32:34;;;;;;;20.25;8.50;;;2.60;83.70;;;;;;4919017;29;20477;-92
2021/01/02 00:35:23;;;;;;;25.55;8.20;;;2.60;83.90;;;;;;4921253;29;20027;-92
2021/01/02 00:38:29;;;;;;;17.42;7.32;;;2.50;83.80;;;;;;4917202;29;20119;-92
2021/01/02 00:40:55;;;;;;;18.67;7.28;;;2.50;83.70;;;;;;4932707;29;20063;-91
2021/01/02 00:43:22;;;;;;;16.40;6.78;;;2.40;83.80;;;;;;4921290;29;20092;-91
2021/01/02 00:45:47;;;;;;;14.82;6.32;;;2.40;83.70;;;;;;4889405;29;20032;-89
2021/01/02 00:48:15;;;;;;;15.68;7.43;;;2.30;83.50;;;;;;4903564;29;20039;-89
2021/01/02 00:50:41;;;;;;;11.63;5.18;;;2.30;83.70;;;;;;4918188;29;20032;-89
2021/01/02 00:53:28;;;;;;;16.42;7.00;;;2.30;83.90;;;;;;4917790;29;20055;-89
2021/01/02 00:55:54;;;;;;;15.50;6.78;;;2.30;84.00;;;;;;4918052;29;20099;-89
2021/01/02 00:58:20;;;;;;;16.92;6.63;;;2.30;84.10;;;;;;4919175;29;20020;-89
2021/01/02 01:01:05;;;;;;;15.18;6.72;;;2.30;84.30;;;;;;4919638;29;20365;-88
2021/01/02 01:03:46;;;;;;;;;;;2.30;84.30;;;;;;4924050;29;20024;-90
2021/01/02 01:06:12;;;;;;;17.88;7.03;;;2.30;84.30;;;;;;4920114;29;19954;-90
2021/01/02 01:08:44;;;;;;;15.90;7.03;;;2.30;84.20;;;;;;4904646;29;20052;-89
2021/01/02 01:11:12;;;;;;;13.30;6.35;;;2.30;84.10;;;;;;4917909;29;20028;-94
2021/01/02 01:13:40;;;;;;;14.20;6.85;;;2.20;84.00;;;;;;4920444;29;20491;-94
2021/01/02 01:16:07;;;;;;;16.02;7.07;;;2.20;83.80;;;;;;4918913;29;20461;-93
2021/01/02 01:19:04;;;;;;;14.65;6.32;;;2.20;83.80;;;;;;4919191;29;20020;-92
2021/01/02 01:21:35;;;;;;;13.57;6.72;;;2.10;83.80;;;;;;4917170;29;20048;-92
2021/01/02 01:24:23;;;;;;;15.13;7.10;;;2.10;83.80;;;;;;4912732;29;20036;-92
2021/01/02 01:27:15;;;;;;;16.17;6.85;;;2.10;83.90;;;;;;4921418;29;20108;-92
2021/01/02 01:30:00;;;;;;;12.85;5.93;;;2.10;84.00;;;;;;4929016;29;20024;-93
2021/01/02 01:32:26;;;;;;;;;;;2.00;84.00;;;;;;4921104;29;20059;-92
2021/01/02 01:35:01;;;;;;;14.45;6.53;;;2.00;84.00;;;;;;4918939;29;19914;-92
2021/01/02 01:37:32;;;;;;;16.00;6.45;;;1.90;83.90;;;;;;4916198;29;20047;-92
2021/01/02 01:39:59;;;;;;;14.10;6.45;;;2.00;83.90;;;;;;4918208;29;20047;-92
2021/01/02 01:42:37;;;;;;;15.30;7.25;;;2.00;84.10;;;;;;4918116;29;20040;-92
2021/01/02 01:45:21;;;;;;;15.65;6.93;;;2.00;84.10;;;;;;4917921;29;20108;-92
2021/01/02 01:48:05;;;;;;;14.88;7.38;;;1.90;83.90;;;;;;4920836;29;20025;-89
2021/01/02 01:51:16;;;;;;;17.15;7.80;;;2.00;83.90;;;;;;4916892;29;20380;-89
2021/01/02 01:54:02;;;;;;;14.88;7.22;;;1.80;83.60;;;;;;4916337;29;20016;-89
2021/01/02 01:56:30;;;;;;;15.57;6.88;;;1.80;83.60;;;;;;4907046;29;20370;-88
2021/01/02 01:59:17;;;;;;;13.30;6.00;;;1.80;83.80;;;;;;4918731;29;20020;-91
2021/01/02 02:01:49;;;;;;;14.73;6.32;;;1.70;83.80;;;;;;4932302;29;20036;-91
2021/01/02 02:04:52;;;;;;;17.30;7.88;;;1.70;84.00;;;;;;4917780;29;20032;-90
2021/01/02 02:07:20;;;;;;;14.45;6.28;;;1.80;84.30;;;;;;4931273;29;20547;-90
2021/01/02 02:09:59;;;;;;;16.90;7.00;;;1.80;84.40;;;;;;4917775;29;20024;-89
2021/01/02 02:12:31;;;;;;;14.75;6.60;;;1.80;84.40;;;;;;4914160;29;20047;-89
2021/01/02 02:15:00;;;;;;;16.25;7.47;;;1.90;84.40;;;;;;4917946;29;20020;-90
2021/01/02 02:17:27;;;;;;;16.20;6.93;;;1.90;84.50;;;;;;4919160;29;20033;-91
2021/01/02 02:20:06;;;;;;;15.00;6.20;;;1.90;84.50;;;;;;4916637;29;20484;-90
2021/01/02 02:22:35;;;;;;;18.15;7.65;;;1.90;84.40;;;;;;4916606;29;20040;-90
2021/01/02 02:25:03;;;;;;;14.32;6.50;;;1.90;84.40;;;;;;4915189;29;20099;-90
2021/01/02 02:27:29;;;;;;;18.00;7.68;;;2.00;84.60;;;;;;4917274;29;20532;-91
2021/01/02 02:29:59;;;;;;;16.25;7.07;;;2.00;84.60;;;;;;4917744;29;20477;-91
2021/01/02 02:32:27;;;;;;;16.27;7.20;;;2.10;84.80;;;;;;4929395;29;20028;-91
2021/01/02 02:34:54;;;;;;;16.15;7.60;;;2.00;84.80;;;;;;4915599;29;20016;-88
2021/01/02 02:37:20;;;;;;;15.10;6.88;;;2.20;84.80;;;;;;4902973;29;20393;-89
2021/01/02 02:39:46;;;;;;;15.43;7.63;;;2.20;84.80;;;;;;4918014;29;20685;-92
2021/01/02 02:42:15;;;;;;;13.90;7.00;;;2.20;84.80;;;;;;4903365;29;20476;-92
2021/01/02 02:44:45;;;;;;;16.00;7.25;;;2.20;84.80;;;;;;4912993;29;20028;-92
2021/01/02 02:47:16;;;;;;;16.50;7.10;;;2.30;84.80;;;;;;4921139;29;20549;-92
2021/01/02 02:49:45;;;;;;;17.30;6.88;;;2.30;84.70;;;;;;4917473;29;20032;-92
2021/01/02 02:52:26;;;;;;;13.57;6.60;;;2.20;84.50;;;;;;4916664;29;20032;-91
2021/01/02 02:54:52;;;;;;;14.35;6.32;;;2.30;84.50;;;;;;4916884;29;20393;-91
2021/01/02 02:57:20;;;;;;;15.70;6.78;;;2.30;84.30;;;;;;4916720;29;20039;-93
2021/01/02 02:59:45;;;;;;;14.68;6.88;;;2.30;84.20;;;;;;4917113;29;20016;-93
2021/01/02 03:02:14;;;;;;;15.25;7.15;;;2.20;84.90;;;;;;4903441;29;20037;-92
2021/01/02 03:04:40;;;;;;;12.93;5.32;;;2.20;84.40;;;;;;4920031;28;20028;-93
2021/01/02 03:07:06;;;;;;;16.33;7.20;;;2.30;84.50;;;;;;4917242;29;20032;-93
2021/01/02 03:09:32;;;;;;;16.50;7.45;;;2.30;84.80;;;;;;4917405;29;20028;-93
2021/01/02 03:12:00;;;;;;;15.13;6.43;;;2.30;84.60;;;;;;4916928;29;20040;-93
2021/01/02 03:14:26;;;;;;;20.23;8.00;;;2.30;84.70;;;;;;4904271;29;20111;-93
2021/01/02 03:16:56;;;;;;;17.65;7.32;;;2.30;84.60;;;;;;4916953;29;20127;-93
2021/01/02 03:19:24;;;;;;;17.48;7.05;;;2.40;84.40;;;;;;4914021;29;20028;-93
2021/01/02 03:21:49;;;;;;;14.05;5.85;;;2.30;84.50;;;;;;4916966;29;20036;-93
2021/01/02 03:24:15;;;;;;;14.73;7.13;;;2.30;84.60;;;;;;4912863;29;20500;-90
2021/01/02 03:26:40;;;;;;;18.25;8.20;;;2.30;85.10;;;;;;4916328;29;20032;-89
2021/01/02 03:29:06;;;;;;;18.33;7.40;;;2.30;84.60;;;;;;4906227;29;20028;-89
2021/01/02 03:31:32;;;;;;;15.55;6.88;;;2.30;84.80;;;;;;4920236;29;20033;-90
2021/01/02 03:33:57;;;;;;;16.73;7.07;;;2.30;84.80;;;;;;4917343;29;20021;-89
2021/01/02 03:36:23;;;;;;;17.15;7.78;;;2.40;84.90;;;;;;4915622;29;20078;-89
2021/01/02 03:38:54;;;;;;;17.35;7.43;;;2.40;84.70;;;;;;4907134;29;20020;-92
2021/01/02 03:41:21;;;;;;;18.63;7.38;;;2.40;84.70;;;;;;4916846;29;20040;-92
2021/01/02 03:43:46;;;;;;;15.65;7.30;;;2.40;84.70;;;;;;4903150;29;20469;-91
2021/01/02 03:46:12;;;;;;;16.52;7.28;;;2.40;84.90;;;;;;4909148;29;20035;-91
2021/01/02 03:48:38;;;;;;;17.83;7.38;;;2.40;84.70;;;;;;4894399;29;20028;-92
2021/01/02 03:51:06;;;;;;;14.95;7.10;;;2.40;84.70;;;;;;4907890;29;20068;-92
2021/01/02 03:53:32;;;;;;;16.20;7.43;;;2.50;84.80;;;;;;4928425;29;20028;-94
2021/01/02 03:55:57;;;;;;;14.18;7.40;;;2.50;84.70;;;;;;4923655;29;20016;-94
2021/01/02 03:58:36;;;;;;;15.90;6.57;;;2.50;84.60;;;;;;4922212;29;20504;-91
2021/01/02 04:01:06;;;;;;;14.05;6.50;;;2.50;84.50;;;;;;4921238;29;20119;-91
2021/01/02 04:03:33;;;;;;;16.55;7.38;;;2.40;84.50;;;;;;4908834;29;20064;-90
2021/01/02 04:05:59;;;;;;;14.43;6.47;;;2.50;84.60;;;;;;4922213;29;21008;-92
2021/01/02 04:08:24;;;;;;;13.70;6.72;;;2.40;84.70;;;;;;4922628;29;20163;-92
2021/01/02 04:10:50;;;;;;;17.08;7.15;;;2.50;84.90;;;;;;4923563;29;20035;-92
2021/01/02 04:13:16;;;;;;;15.10;6.57;;;2.50;84.70;;;;;;4923461;29;20024;-91
2021/01/02 04:15:42;;;;;;;14.70;6.55;;;2.50;84.70;;;;;;4898450;29;20119;-91
2021/01/02 04:18:07;;;;;;;14.05;6.28;;;2.50;84.70;;;;;;4919685;29;20063;-91
2021/01/02 04:20:34;;;;;;;15.38;7.13;;;2.50;84.50;;;;;;4921755;29;20028;-92
2021/01/02 04:22:59;;;;;;;17.05;7.93;;;2.50;84.80;;;;;;4924353;29;20079;-92
2021/01/02 04:25:25;;;;;;;15.25;6.38;;;2.50;84.90;;;;;;4921351;29;20493;-92
2021/01/02 04:27:51;;;;;;;17.48;7.68;;;2.50;85.00;;;;;;4921926;29;20039;-92
2021/01/02 04:30:17;;;;;;;16.10;7.22;;;2.60;85.00;;;;;;4908679;29;20027;-91
2021/01/02 04:32:47;;;;;;;20.05;8.27;;;2.70;85.10;;;;;;4922117;29;20485;-91
2021/01/02 04:35:13;;;;;;;15.63;7.60;;;2.70;85.00;;;;;;4921876;29;20039;-91
2021/01/02 04:37:41;;;;;;;16.52;7.10;;;2.80;85.00;;;;;;4908867;29;20029;-91
2021/01/02 04:40:09;;;;;;;17.23;8.27;;;2.70;84.90;;;;;;4921679;29;20119;-91
2021/01/02 04:42:40;;;;;;;19.95;7.63;;;2.80;85.00;;;;;;4922045;29;20090;-92
2021/01/02 04:45:08;;;;;;;17.50;8.15;;;2.80;84.70;;;;;;4922017;29;20020;-91
2021/01/02 04:47:36;;;;;;;20.95;9.02;;;2.70;84.80;;;;;;4922079;29;20516;-91
2021/01/02 04:50:02;;;;;;;17.65;8.75;;;2.80;84.70;;;;;;4921563;29;20020;-91
2021/01/02 04:52:29;;;;;;;16.05;8.27;;;2.70;84.80;;;;;;4921702;29;20024;-92
2021/01/02 04:54:57;;;;;;;18.65;7.72;;;2.80;84.80;;;;;;4922810;29;20028;-91
2021/01/02 04:57:22;;;;;;;16.95;7.60;;;2.80;84.90;;;;;;4919133;29;20072;-91
2021/01/02 04:59:49;;;;;;;19.25;7.38;;;2.70;84.80;;;;;;4918753;29;20024;-92
2021/01/02 05:02:21;;;;;;;18.10;7.82;;;2.70;84.30;;;;;;4918542;29;20052;-90
2021/01/02 05:04:49;;;;;;;16.35;7.55;;;2.70;84.60;;;;;;4918262;29;20461;-91
2021/01/02 05:07:41;;;;;;;17.92;7.95;;;2.70;85.00;;;;;;4917540;29;20024;-90
2021/01/02 05:10:07;;;;;;;15.77;7.25;;;2.80;85.00;;;;;;4917274;29;20037;-91
2021/01/02 05:12:34;;;;;;;17.35;7.40;;;2.80;84.70;;;;;;4889451;29;20123;-92
2021/01/02 05:15:08;;;;;;;17.98;8.20;;;2.80;84.60;;;;;;4924935;29;20020;-92
2021/01/02 05:17:35;;;;;;;19.02;9.18;;;2.80;84.90;;;;;;4918909;29;20020;-92
2021/01/02 05:20:08;;;;;;;19.95;8.52;;;2.80;84.60;;;;;;4920622;29;20052;-92
2021/01/02 05:22:35;;;;;;;22.35;9.48;;;2.80;84.80;;;;;;4896278;29;20512;-92
2021/01/02 05:25:15;;;;;;;18.98;8.20;;;2.80;84.80;;;;;;4917578;29;20024;-91
2021/01/02 05:27:46;;;;;;;18.25;7.90;;;2.80;84.70;;;;;;4914500;29;20473;-91
2021/01/02 05:30:26;;;;;;;19.65;8.52;;;2.80;84.30;;;;;;4918100;29;20028;-91
2021/01/02 05:33:00;;;;;;;19.38;8.30;;;2.70;84.60;;;;;;4917246;29;20020;-90
2021/01/02 05:35:29;;;;;;;20.47;9.17;;;2.80;85.00;;;;;;4917598;29;20060;-91
2021/01/02 05:38:11;;;;;;;18.98;7.65;;;2.80;84.90;;;;;;4917907;29;20028;-91
2021/01/02 05:40:40;;;;;;;18.73;9.07;;;2.80;85.00;;;;;;4917526;29;20021;-91
2021/01/02 05:43:05;;;;;;;18.17;8.20;;;2.80;85.50;;;;;;4918017;29;20055;-91
2021/01/02 05:45:32;;;;;;;19.55;9.27;;;2.80;84.90;;;;;;4904119;29;20059;-90
2021/01/02 05:48:12;;;;;;;19.27;9.38;;;2.80;84.70;;;;;;4917903;29;20088;-92
2021/01/02 05:51:06;;;;;;;19.50;8.80;;;2.80;84.70;;;;;;4917710;29;20023;-92
2021/01/02 05:53:33;;;;;;;17.48;8.38;;;2.80;84.50;;;;;;4916367;29;20488;-92
2021/01/02 05:56:13;;;;;;;28.02;13.93;;;2.80;84.50;;;;;;4925238;29;20017;-91
2021/01/02 05:58:41;;;;;;;21.25;10.93;;;2.70;84.60;;;;;;4914885;29;20039;-92
2021/01/02 06:01:08;;;;;;;22.02;9.07;;;2.80;84.70;;;;;;4918578;29;20063;-91
2021/01/02 06:03:35;;;;;;;21.45;9.98;;;2.70;84.70;;;;;;4920628;29;20025;-92
2021/01/02 06:06:08;;;;;;;16.73;8.48;;;2.70;85.20;;;;;;4889404;29;20067;-92
2021/01/02 06:08:34;;;;;;;20.30;8.77;;;2.70;85.00;;;;;;4919315;29;20020;-91
2021/01/02 06:11:03;;;;;;;20.30;8.15;;;2.70;84.90;;;;;;4918783;29;20064;-92
2021/01/02 06:13:30;;;;;;;18.60;8.35;;;2.80;84.90;;;;;;4919221;29;20508;-92
2021/01/02 06:16:01;;;;;;;19.00;7.50;;;2.80;84.90;;;;;;4916957;29;20032;-84
2021/01/02 06:18:28;;;;;;;16.38;6.95;;;2.70;84.80;;;;;;4916506;29;20495;-84
2021/01/02 06:20:56;;;;;;;22.83;9.18;;;2.80;85.10;;;;;;4921579;28;20037;-84
2021/01/02 06:23:25;;;;;;;22.50;8.93;;;2.80;85.40;;;;;;4916282;29;20099;-84
2021/01/02 06:25:53;;;;;;;13.35;6.38;;;2.90;85.30;;;;;;4903096;29;20056;-84
2021/01/02 06:28:19;;;;;;;23.85;10.18;;;2.90;84.90;;;;;;4916110;29;20077;-84
2021/01/02 06:30:45;;;;;;;18.50;8.82;;;2.90;85.00;;;;;;4917210;29;20397;-83
2021/01/02 06:33:17;;;;;;;21.55;9.02;;;2.90;84.90;;;;;;4916231;29;20044;-83
2021/01/02 06:35:44;;;;;;;19.30;8.50;;;2.90;84.80;;;;;;4914866;29;20024;-83
2021/01/02 06:38:11;;;;;;;20.73;8.80;;;2.90;84.90;;;;;;4916115;29;20020;-83
2021/01/02 06:40:41;;;;;;;16.95;7.50;;;2.90;84.80;;;;;;4916065;29;20056;-83
2021/01/02 06:43:16;;;;;;;23.38;8.57;;;2.80;84.30;;;;;;4915509;29;20088;-84
2021/01/02 06:45:46;;;;;;;18.30;8.93;;;2.70;84.50;;;;;;4915997;29;20095;-84
2021/01/02 06:48:17;;;;;;;19.13;7.72;;;2.80;84.60;;;;;;4917169;29;20036;-83
2021/01/02 06:50:44;;;;;;;22.58;10.20;;;2.70;84.60;;;;;;4915404;29;20020;-83
2021/01/02 06:53:35;;;;;;;23.10;8.32;;;2.70;84.80;;;;;;4918103;29;20071;-83
2021/01/02 06:56:05;;;;;;;22.95;8.10;;;2.70;85.00;;;;;;4912747;29;20063;-83
2021/01/02 06:58:36;;;;;;;19.88;8.50;;;2.80;85.10;;;;;;4916169;29;20044;-83
2021/01/02 07:01:06;;;;;;;21.08;8.77;;;2.80;85.00;;;;;;4915487;29;20066;-83
2021/01/02 07:03:41;;;;;;;23.52;8.35;;;2.90;85.10;;;;;;4932721;29;20087;-84
2021/01/02 07:06:27;;;;;;;19.35;7.45;;;2.90;85.10;;;;;;4929720;29;20393;-84
2021/01/02 07:08:57;;;;;;;19.65;7.32;;;2.90;85.00;;;;;;4912406;29;20020;-83
2021/01/02 07:11:33;;;;;;;19.02;8.80;;;2.80;84.50;;;;;;4917640;29;20025;-83
2021/01/02 07:14:08;;;;;;;21.85;8.73;;;2.80;84.90;;;;;;4916886;29;20031;-84
2021/01/02 07:16:37;;;;;;;20.98;8.50;;;2.80;85.00;;;;;;4916597;29;20366;-84
2021/01/02 07:19:06;;;;;;;20.13;8.57;;;2.90;85.10;;;;;;4916381;29;20500;-83
2021/01/02 07:21:33;;;;;;;23.67;10.30;;;2.90;85.10;;;;;;4914752;29;20043;-83
2021/01/02 07:24:21;;;;;;;19.35;9.57;;;3.00;85.20;;;;;;4917356;29;20416;-84
2021/01/02 07:26:48;;;;;;;26.73;10.18;;;3.00;85.30;;;;;;4915014;29;20024;-83
2021/01/02 07:29:20;;;;;;;20.23;9.13;;;3.00;85.00;;;;;;4915253;29;20469;-87
2021/01/02 07:31:46;;;;;;;19.88;8.60;;;3.00;85.30;;;;;;4906891;29;20060;-85
2021/01/02 07:34:30;;;;;;;23.65;9.55;;;3.00;85.20;;;;;;4915199;29;20043;-86
2021/01/02 07:36:56;;;;;;;20.50;8.60;;;3.00;85.00;;;;;;4913138;29;20115;-81
2021/01/02 07:39:23;;;;;;;19.70;8.48;;;3.00;85.10;;;;;;4915086;29;20141;-82
2021/01/02 07:41:54;;;;;;;22.75;10.18;;;3.00;85.20;;;;;;4915202;29;20040;-82
2021/01/02 07:44:20;;;;;;;23.00;10.88;;;3.10;85.40;;;;;;4915044;29;20024;-85
2021/01/02 07:46:47;;;;;;;21.17;9.90;;;3.10;85.20;;;;;;4914787;29;20040;-87
2021/01/02 07:49:16;;;;;;;24.70;10.05;;;3.10;84.80;;;;;;4902206;29;20032;-86
2021/01/02 07:51:47;;;;;;;21.20;9.30;;;3.10;85.10;;;;;;4914769;29;20028;-89
2021/01/02 07:54:13;;;;;;;23.17;9.82;;;3.10;85.10;;;;;;4938006;28;20177;-85
2021/01/02 07:56:41;;;;;;;20.80;9.88;;;3.20;85.30;;;;;;4915003;29;20508;-85
2021/01/02 07:59:25;;;;;;;18.10;8.20;;;3.10;85.00;;;;;;4915968;29;20025;-87
2021/01/02 08:02:02;;;;;;;23.50;9.68;;;3.10;85.10;;;;;;4922686;28;20036;-93
2021/01/02 08:04:29;;;;;;;17.73;8.20;;;3.20;85.10;;;;;;4916198;29;20056;-93
2021/01/02 08:07:01;;;;;;;21.17;9.30;;;3.20;85.40;;;;;;4915715;29;20039;-91
2021/01/02 08:09:28;;;;;;;22.05;9.13;;;3.20;85.10;;;;;;4909540;29;20031;-93
2021/01/02 08:11:57;;;;;;;18.95;9.07;;;3.20;85.20;;;;;;4916892;29;20035;-94
2021/01/02 08:14:24;;;;;;;20.77;9.48;;;3.30;85.40;;;;;;4926001;29;20116;-93
2021/01/02 08:17:09;;;;;;;20.38;10.32;;;3.30;86.20;;;;;;4916269;29;20084;-94
2021/01/02 08:19:47;;;;;;;22.90;11.95;;;3.40;85.50;;;;;;4915278;29;20012;-93
2021/01/02 08:22:14;;;;;;;22.05;10.02;;;3.40;85.20;;;;;;4955962;29;20032;-90
2021/01/02 08:24:42;;;;;;;19.45;8.50;;;3.40;85.00;;;;;;4934015;29;20084;-94
2021/01/02 08:27:08;;;;;;;22.05;9.38;;;3.30;85.10;;;;;;4929364;29;20056;-95
2021/01/02 08:29:34;;;;;;;21.65;9.85;;;3.40;85.40;;;;;;4889465;29;20492;-90
2021/01/02 08:32:10;;;;;;;23.88;10.52;;;3.40;85.10;;;;;;4917460;29;20032;-89
2021/01/02 08:34:36;;;;;;;22.05;9.75;;;3.40;85.20;;;;;;4921880;29;20059;-91
2021/01/02 08:37:05;;;;;;;22.40;10.30;;;3.40;85.30;;;;;;4908684;29;20028;-89
2021/01/02 08:39:31;;;;;;;20.27;9.88;;;3.40;85.30;;;;;;4924567;29;20025;-91
2021/01/02 08:41:58;;;;;;;26.30;12.35;;;3.50;85.30;;;;;;4926037;29;20043;-90
2021/01/02 08:44:29;;;;;;;20.27;9.80;;;3.50;85.30;;;;;;4925456;29;20025;-88
2021/01/02 08:46:55;;;;;;;24.17;11.35;;;3.40;85.10;;;;;;4923748;28;20031;-92
2021/01/02 08:49:44;;;;;;;20.65;10.73;;;3.50;85.30;;;;;;4901427;29;20032;-95
2021/01/02 08:52:36;;;;;;;20.08;9.27;;;3.50;85.00;;;;;;4919797;29;20077;-92
2021/01/02 08:55:13;;;;;;;24.30;11.43;;;3.50;85.30;;;;;;4925334;29;20028;-92
2021/01/02 08:57:47;;;;;;;23.40;11.60;;;3.50;85.30;;;;;;4937559;29;20075;-94
2021/01/02 09:00:19;;;;;;;19.40;9.48;;;3.50;85.30;;;;;;4939413;29;20103;-94
2021/01/02 09:02:54;;;;;;;23.17;9.75;;;3.50;85.30;;;;;;4932314;29;20095;-95
2021/01/02 09:05:35;;;;;;;39.08;19.70;;;3.50;85.20;;;;;;4940689;29;20059;-95
2021/01/02 09:08:08;;;;;;;24.88;11.05;;;3.50;85.10;;;;;;4935944;29;20028;-94
2021/01/02 09:10:34;;;;;;;19.63;8.88;;;3.60;85.50;;;;;;4922117;29;20048;-95
2021/01/02 09:13:22;;;;;;;29.10;13.00;;;3.60;85.30;;;;;;4940124;29;20020;-90
2021/01/02 09:15:50;;;;;;;31.40;12.93;;;3.60;85.40;;;;;;4915733;29;20027;-93
2021/01/02 09:18:36;;;;;;;20.08;8.70;;;3.60;85.20;;;;;;4919202;29;20087;-92
2021/01/02 09:21:11;;;;;;;22.98;9.70;;;3.60;85.00;;;;;;4920212;29;20024;-89
2021/01/02 09:23:39;;;;;;;21.63;9.95;;;3.70;85.30;;;;;;4926824;29;20056;-89
2021/01/02 09:26:27;;;;;;;19.83;9.63;;;3.70;85.90;;;;;;4917131;29;20063;-94
2021/01/02 09:28:55;;;;;;;16.73;8.13;;;3.80;86.20;;;;;;4913120;29;20030;-83
2021/01/02 09:31:21;;;;;;;18.45;9.50;;;4.00;86.20;;;;;;4924849;29;20372;-83
2021/01/02 09:33:48;;;;;;;18.05;9.90;;;4.10;86.00;;;;;;4947757;28;20028;-88
2021/01/02 09:36:15;;;;;;;19.88;9.60;;;4.10;85.80;;;;;;4923339;29;20042;-90
2021/01/02 09:38:44;;;;;;;18.90;8.98;;;4.20;85.90;;;;;;4927853;29;20385;-86
2021/01/02 09:41:12;;;;;;;20.13;10.05;;;4.40;86.10;;;;;;4917339;29;20036;-85
2021/01/02 09:43:38;;;;;;;18.85;9.13;;;4.50;86.50;;;;;;4917201;29;20032;-85
2021/01/02 09:46:04;;;;;;;20.98;9.20;;;4.60;86.20;;;;;;4917360;29;20028;-85
2021/01/02 09:48:30;;;;;;;21.33;9.93;;;4.70;86.50;;;;;;4911942;29;20079;-85
2021/01/02 09:50:56;;;;;;;19.42;10.00;;;4.90;86.70;;;;;;4917032;29;20067;-85
2021/01/02 09:53:21;;;;;;;22.42;10.05;;;5.00;86.50;;;;;;4916887;29;20055;-85
2021/01/02 09:55:47;;;;;;;19.17;9.38;;;5.10;86.30;;;;;;4910121;29;20523;-86
2021/01/02 09:58:13;;;;;;;19.73;9.38;;;5.20;85.90;;;;;;4904497;29;20530;-85
2021/01/02 10:00:40;;;;;;;18.80;10.18;;;5.20;85.90;;;;;;4916607;29;20039;-85
2021/01/02 10:03:08;;;;;;;20.08;10.18;;;5.30;86.80;;;;;;4913588;29;20115;-85
2021/01/02 10:05:34;;;;;;;19.23;9.60;;;5.40;86.70;;;;;;4916529;29;20481;-85
2021/01/02 10:08:00;;;;;;;16.75;9.10;;;5.60;86.60;;;;;;4916689;29;20038;-85
2021/01/02 10:10:26;;;;;;;17.70;8.27;;;5.70;86.70;;;;;;4916667;29;20102;-85
2021/01/02 10:12:51;;;;;;;18.35;8.93;;;5.90;86.80;;;;;;4886503;29;20111;-85
2021/01/02 10:15:17;;;;;;;19.80;9.73;;;6.00;86.80;;;;;;4918786;29;20493;-85
2021/01/02 10:17:43;;;;;;;19.38;9.30;;;6.00;86.20;;;;;;4915158;29;20024;-85
2021/01/02 10:20:11;;;;;;;24.88;12.10;;;6.00;85.60;;;;;;4916649;29;20031;-83
2021/01/02 10:22:37;;;;;;;25.77;10.55;;;6.00;86.00;;;;;;4915898;29;20056;-83
2021/01/02 10:25:04;;;;;;;19.88;9.48;;;6.00;85.30;;;;;;4887541;29;20466;-83
2021/01/02 10:27:30;;;;;;;22.30;9.30;;;5.90;85.30;;;;;;4919338;29;20024;-84
2021/01/02 10:29:56;;;;;;;22.33;9.95;;;5.90;85.70;;;;;;4916258;29;20028;-84
2021/01/02 10:32:25;;;;;;;18.02;9.30;;;5.90;85.80;;;;;;4916211;29;20127;-86
2021/01/02 10:34:51;;;;;;;18.25;8.52;;;5.90;85.10;;;;;;4917324;29;20032;-87
2021/01/02 10:37:20;;;;;;;17.58;9.10;;;5.90;85.20;;;;;;4943502;29;20028;-89
2021/01/02 10:39:46;;;;;;;20.95;11.27;;;5.90;85.40;;;;;;4919797;29;20024;-89
2021/01/02 10:42:14;;;;;;;19.85;9.73;;;5.90;85.30;;;;;;4918693;29;20036;-89
2021/01/02 10:44:44;;;;;;;17.38;8.93;;;5.80;84.70;;;;;;4916943;29;20036;-90
2021/01/02 10:47:11;;;;;;;21.08;10.48;;;5.80;85.50;;;;;;4917276;29;20091;-90
2021/01/02 10:49:36;;;;;;;16.42;8.68;;;5.80;85.40;;;;;;4911233;29;20020;-86
2021/01/02 10:52:02;;;;;;;17.83;8.63;;;5.80;85.10;;;;;;4902948;29;20039;-87
2021/01/02 10:54:28;;;;;;;16.77;8.45;;;5.80;85.50;;;;;;4906030;29;20051;-87
2021/01/02 10:56:54;;;;;;;17.88;8.50;;;5.70;84.80;;;;;;4913504;29;20032;-87
2021/01/02 10:59:22;;;;;;;15.93;7.70;;;5.70;84.80;;;;;;4910024;29;20035;-87
2021/01/02 11:01:50;;;;;;;19.40;9.07;;;5.60;84.60;;;;;;4916312;29;20028;-87
2021/01/02 11:04:18;;;;;;;17.92;8.88;;;5.50;84.50;;;;;;4917068;29;20784;-87
2021/01/02 11:06:48;;;;;;;16.02;7.85;;;5.50;85.30;;;;;;4916154;29;20024;-87
2021/01/02 11:09:14;;;;;;;20.67;9.50;;;5.60;85.80;;;;;;4920192;29;20024;-87
2021/01/02 11:11:43;;;;;;;18.75;8.52;;;5.70;85.70;;;;;;4926976;29;20127;-85
2021/01/02 11:14:10;;;;;;;16.42;7.72;;;5.90;86.50;;;;;;4901613;29;20024;-86
2021/01/02 11:16:38;;;;;;;18.05;9.55;;;5.80;85.80;;;;;;4915604;29;20036;-86
2021/01/02 11:19:10;;;;;;;16.77;7.88;;;5.90;85.60;;;;;;4915844;29;20123;-85
2021/01/02 11:21:35;;;;;;;18.25;7.93;;;6.00;85.70;;;;;;4915537;29;20036;-85
2021/01/02 11:24:01;;;;;;;17.10;7.78;;;6.10;85.90;;;;;;4915741;29;20035;-87
2021/01/02 11:26:27;;;;;;;15.18;7.50;;;6.00;85.00;;;;;;4918354;29;20478;-88
2021/01/02 11:28:52;;;;;;;17.25;7.57;;;6.10;85.40;;;;;;4916311;29;20031;-86
2021/01/02 11:31:28;;;;;;;16.20;7.47;;;6.00;85.20;;;;;;4902291;29;20111;-85
2021/01/02 11:33:53;;;;;;;15.35;7.65;;;5.90;84.90;;;;;;4916626;29;20102;-86
2021/01/02 11:36:19;;;;;;;14.32;7.20;;;6.00;85.20;;;;;;4915164;29;20075;-83
2021/01/02 11:38:47;;;;;;;13.20;6.05;;;6.00;85.20;;;;;;4916549;29;20036;-84
2021/01/02 11:41:12;;;;;;;14.07;5.88;;;6.00;85.50;;;;;;4915440;29;20035;-84
2021/01/02 11:43:38;;;;;;;14.20;6.47;;;6.00;85.60;;;;;;4900309;29;20029;-85
2021/01/02 11:46:03;;;;;;;16.10;7.25;;;6.10;85.20;;;;;;4913615;29;20037;-86
2021/01/02 11:48:29;;;;;;;14.63;6.80;;;6.00;84.90;;;;;;4902530;29;20060;-86
2021/01/02 11:50:55;;;;;;;14.75;6.72;;;5.90;84.60;;;;;;4898732;29;20024;-86
2021/01/02 11:53:20;;;;;;;14.32;7.40;;;5.90;84.80;;;;;;4901663;29;20036;-87
2021/01/02 11:55:46;;;;;;;17.60;7.75;;;5.80;84.30;;;;;;4915863;29;20436;-89
2021/01/02 11:58:11;;;;;;;14.15;6.35;;;5.70;84.10;;;;;;4886605;29;20043;-90
2021/01/02 12:00:37;;;;;;;14.60;6.97;;;5.70;84.60;;;;;;4901185;29;20063;-90
2021/01/02 12:03:03;;;;;;;14.80;6.85;;;5.60;84.90;;;;;;4931796;28;20108;-90
2021/01/02 12:05:29;;;;;;;14.18;6.60;;;5.70;84.70;;;;;;4924957;29;20123;-93
2021/01/02 12:07:55;;;;;;;14.95;7.25;;;5.60;85.20;;;;;;4906891;29;20134;-90
2021/01/02 12:10:21;;;;;;;15.32;6.90;;;5.60;84.10;;;;;;4909713;29;20485;-89
2021/01/02 12:12:46;;;;;;;15.95;8.13;;;5.60;84.80;;;;;;4920265;29;20024;-90
2021/01/02 12:15:15;;;;;;;15.43;7.32;;;5.60;85.00;;;;;;4919001;29;20037;-92
2021/01/02 12:17:41;;;;;;;16.58;8.07;;;5.50;84.20;;;;;;4924611;29;20107;-91
2021/01/02 12:20:08;;;;;;;20.95;9.60;;;5.50;84.90;;;;;;4913570;29;20039;-92
2021/01/02 12:22:34;;;;;;;16.67;7.40;;;5.40;84.00;;;;;;4946516;29;20127;-93
2021/01/02 12:25:00;;;;;;;17.08;8.18;;;5.30;84.40;;;;;;4909227;29;20020;-92
2021/01/02 12:27:26;;;;;;;15.75;8.40;;;5.40;84.40;;;;;;4913097;29;20032;-87
2021/01/02 12:29:52;;;;;;;16.75;8.07;;;5.40;84.20;;;;;;4916469;29;20012;-86
2021/01/02 12:32:20;;;;;;;15.75;7.38;;;5.40;84.50;;;;;;4906997;29;20049;-86
2021/01/02 12:34:45;;;;;;;16.73;7.93;;;5.40;84.50;;;;;;4929729;29;20027;-87
2021/01/02 12:37:15;;;;;;;16.23;7.78;;;5.50;84.60;;;;;;4909715;29;20548;-92
2021/01/02 12:39:42;;;;;;;15.43;8.23;;;5.50;84.50;;;;;;4928351;29;20059;-93
2021/01/02 12:42:08;;;;;;;16.77;7.88;;;5.40;84.20;;;;;;4907076;29;20068;-86
2021/01/02 12:44:34;;;;;;;19.33;8.80;;;5.40;83.70;;;;;;4918470;29;20075;-90
2021/01/02 12:47:12;;;;;;;17.85;8.80;;;5.30;83.70;;;;;;4918687;29;20036;-90
2021/01/02 12:49:37;;;;;;;18.52;9.10;;;5.30;83.90;;;;;;4918526;29;20028;-90
2021/01/02 12:52:06;;;;;;;18.70;7.93;;;5.20;83.70;;;;;;4940230;28;20043;-90
2021/01/02 12:54:35;;;;;;;17.70;8.30;;;5.20;84.40;;;;;;4919037;29;20500;-90
2021/01/02 12:57:00;;;;;;;16.13;8.13;;;5.20;84.10;;;;;;4907460;29;20025;-89
2021/01/02 12:59:32;;;;;;;17.40;7.90;;;5.20;84.40;;;;;;4918106;29;20028;-89
2021/01/02 13:02:00;;;;;;;17.95;8.98;;;5.30;84.10;;;;;;4918220;29;20493;-90
2021/01/02 13:04:26;;;;;;;19.92;9.82;;;5.30;84.50;;;;;;4909518;29;20040;-88